Time;durP1;ratioP1;P1;durP2;ratioP2;P2;SDS_P1;SDS_P2;PMS_P1;PMS_P2;Temp;Humidity;BMP_temperature;BMP_pressure;BME280_temperature;BME280_humidity;BME280_pressure;Samples;Min_cycle;Max_cycle;Signal;HPM_P1;HPM_P2
2020/12/28 00:00:23;;;;;;;1.30;0.30;;;7.40;99.90;;;;;;4966540;28;20722;-76
2020/12/28 00:02:49;;;;;;;0.40;0.22;;;8.30;99.90;;;;;;4965148;28;20420;-75
2020/12/28 00:05:14;;;;;;;0.60;0.40;;;8.50;99.90;;;;;;4966133;28;20422;-75
2020/12/28 00:07:40;;;;;;;0.50;0.30;;;7.60;99.90;;;;;;4966887;28;20411;-75
2020/12/28 00:10:11;;;;;;;0.70;0.40;;;7.80;99.90;;;;;;4968610;28;20478;-74
2020/12/28 00:12:47;;;;;;;0.40;0.20;;;7.50;99.90;;;;;;4968297;28;20392;-75
2020/12/28 00:15:33;;;;;;;0.40;0.20;;;7.30;99.90;;;;;;4966652;28;20410;-74
2020/12/28 00:18:01;;;;;;;0.40;0.30;;;7.90;99.90;;;;;;4966538;28;20406;-73
2020/12/28 00:20:28;;;;;;;1.20;0.20;;;8.90;99.90;;;;;;4968765;28;20396;-73
2020/12/28 00:22:53;;;;;;;0.40;0.30;;;8.00;99.90;;;;;;4962862;28;20408;-72
2020/12/28 00:25:22;;;;;;;0.40;0.20;;;7.60;99.90;;;;;;4971668;28;20435;-73
2020/12/28 00:27:48;;;;;;;0.40;0.20;;;8.80;99.90;;;;;;4966893;28;20442;-73
2020/12/28 00:30:14;;;;;;;1.10;0.30;;;7.70;99.90;;;;;;4971567;28;20947;-73
2020/12/28 00:32:40;;;;;;;0.40;0.20;;;7.60;99.90;;;;;;4973725;28;20389;-73
2020/12/28 00:35:08;;;;;;;0.90;0.30;;;7.50;99.90;;;;;;4968054;28;20392;-72
2020/12/28 00:37:33;;;;;;;0.80;0.40;;;7.90;99.90;;;;;;4955600;28;20431;-72
2020/12/28 00:39:59;;;;;;;0.80;0.30;;;7.70;99.90;;;;;;4964133;28;20655;-72
2020/12/28 00:42:25;;;;;;;0.40;0.20;;;8.70;99.90;;;;;;4962452;28;20388;-73
2020/12/28 00:44:51;;;;;;;0.50;0.30;;;7.80;99.90;;;;;;4959221;28;20449;-73
2020/12/28 00:47:17;;;;;;;0.40;0.30;;;7.90;98.60;;;;;;4955401;28;20481;-73
2020/12/28 00:49:43;;;;;;;1.05;0.40;;;8.00;99.00;;;;;;4965034;28;20456;-74
2020/12/28 00:52:09;;;;;;;0.43;0.20;;;8.10;98.80;;;;;;4959990;28;20828;-73
2020/12/28 00:54:34;;;;;;;0.40;0.30;;;8.70;99.90;;;;;;4960146;28;20396;-72
2020/12/28 00:57:00;;;;;;;0.50;0.30;;;7.80;99.90;;;;;;4966031;28;20424;-72
2020/12/28 00:59:26;;;;;;;0.70;0.30;;;7.70;99.90;;;;;;4955453;28;20386;-72
2020/12/28 01:01:59;;;;;;;0.70;0.20;;;7.50;99.90;;;;;;4964900;28;20401;-72
2020/12/28 01:04:25;;;;;;;0.40;0.20;;;7.60;99.90;;;;;;4962181;28;20745;-72
2020/12/28 01:06:51;;;;;;;0.70;0.30;;;7.70;99.90;;;;;;4957050;28;20428;-72
2020/12/28 01:09:17;;;;;;;2.70;0.30;;;8.90;99.90;;;;;;4982868;28;20428;-72
2020/12/28 01:11:43;;;;;;;0.60;0.30;;;7.30;99.90;;;;;;4955764;28;20392;-72
2020/12/28 01:14:10;;;;;;;0.40;0.20;;;7.80;99.90;;;;;;4965179;28;20400;-71
2020/12/28 01:16:37;;;;;;;0.40;0.20;;;7.20;99.90;;;;;;4967346;28;20427;-72
2020/12/28 01:19:03;;;;;;;0.40;0.20;;;7.50;99.90;;;;;;4959150;28;20444;-71
2020/12/28 01:21:29;;;;;;;0.40;0.20;;;7.10;99.90;;;;;;4971606;28;20492;-71
2020/12/28 01:23:54;;;;;;;0.40;0.20;;;7.80;99.90;;;;;;4960704;28;20812;-71
2020/12/28 01:26:20;;;;;;;0.40;0.20;;;7.40;99.90;;;;;;4965371;28;20390;-72
2020/12/28 01:28:46;;;;;;;0.40;0.30;;;6.70;99.90;;;;;;4982584;28;20407;-72
2020/12/28 01:31:12;;;;;;;0.40;0.20;;;6.70;99.90;;;;;;4958817;28;20394;-72
2020/12/28 01:33:38;;;;;;;0.40;0.28;;;7.30;99.90;;;;;;4970879;28;20389;-74
2020/12/28 01:36:04;;;;;;;0.40;0.20;;;6.80;99.90;;;;;;4962065;28;20448;-70
2020/12/28 01:38:30;;;;;;;0.40;0.20;;;7.10;99.90;;;;;;4963695;28;20393;-71
2020/12/28 01:40:57;;;;;;;0.40;0.30;;;7.00;99.90;;;;;;4968900;28;20396;-73
2020/12/28 01:43:28;;;;;;;0.45;0.30;;;6.30;99.90;;;;;;4958320;28;20414;-73
2020/12/28 01:45:53;;;;;;;0.40;0.20;;;7.60;99.90;;;;;;4969120;28;20399;-71
2020/12/28 01:48:19;;;;;;;0.40;0.20;;;6.30;99.90;;;;;;4965198;28;20394;-73
2020/12/28 01:50:45;;;;;;;0.50;0.30;;;7.20;99.90;;;;;;4967041;28;20384;-73
2020/12/28 01:53:11;;;;;;;0.40;0.30;;;7.30;99.90;;;;;;4958834;28;20421;-75
2020/12/28 01:55:38;;;;;;;0.40;0.20;;;7.40;99.90;;;;;;4970590;28;20414;-72
2020/12/28 01:58:04;;;;;;;0.40;0.20;;;7.20;99.90;;;;;;4961510;28;20553;-72
2020/12/28 02:00:30;;;;;;;0.40;0.20;;;5.80;99.90;;;;;;4963411;28;20778;-73
2020/12/28 02:02:56;;;;;;;0.60;0.30;;;7.10;99.90;;;;;;4968418;28;20463;-74
2020/12/28 02:05:21;;;;;;;0.90;0.30;;;5.80;99.90;;;;;;4957855;28;20390;-73
2020/12/28 02:07:53;;;;;;;0.40;0.30;;;5.90;99.90;;;;;;4968502;28;20394;-73
2020/12/28 02:10:19;;;;;;;0.52;0.20;;;6.50;99.90;;;;;;4964063;28;20480;-74
2020/12/28 02:12:44;;;;;;;0.40;0.20;;;5.80;99.90;;;;;;4975417;28;20465;-75
2020/12/28 02:15:10;;;;;;;0.40;0.20;;;5.60;99.90;;;;;;4970585;28;20836;-74
2020/12/28 02:17:36;;;;;;;0.40;0.20;;;5.70;99.90;;;;;;4973233;28;20504;-73
2020/12/28 02:20:02;;;;;;;0.80;0.30;;;6.30;99.90;;;;;;4966189;28;20986;-73
2020/12/28 02:22:28;;;;;;;0.50;0.40;;;6.00;99.90;;;;;;4964891;28;20391;-73
2020/12/28 02:24:53;;;;;;;0.40;0.23;;;6.20;99.90;;;;;;4958387;28;20396;-73
2020/12/28 02:27:19;;;;;;;0.40;0.20;;;5.80;99.90;;;;;;4970358;28;20389;-73
2020/12/28 02:29:44;;;;;;;0.43;0.23;;;5.80;99.90;;;;;;4958483;28;20385;-77
2020/12/28 02:32:10;;;;;;;0.50;0.30;;;6.20;99.90;;;;;;4965703;28;20390;-73
2020/12/28 02:34:36;;;;;;;0.40;0.30;;;6.10;99.90;;;;;;4966109;28;20420;-73
2020/12/28 02:37:02;;;;;;;0.60;0.30;;;5.90;99.90;;;;;;4958289;28;20414;-74
2020/12/28 02:39:27;;;;;;;0.40;0.30;;;5.70;99.90;;;;;;4970477;28;20861;-73
2020/12/28 02:41:53;;;;;;;1.00;0.30;;;6.10;99.90;;;;;;4960412;28;20384;-72
2020/12/28 02:44:18;;;;;;;0.50;0.30;;;7.40;99.90;;;;;;4964696;28;20437;-72
2020/12/28 02:46:44;;;;;;;0.40;0.30;;;5.90;99.90;;;;;;4960991;28;20396;-72
2020/12/28 02:49:09;;;;;;;0.40;0.20;;;7.80;99.90;;;;;;4968581;28;20754;-73
2020/12/28 02:51:35;;;;;;;0.40;0.28;;;5.80;99.90;;;;;;4957895;28;20411;-72
2020/12/28 02:54:01;;;;;;;0.50;0.30;;;5.70;99.90;;;;;;4965972;28;20590;-73
2020/12/28 02:56:26;;;;;;;0.50;0.30;;;5.70;99.90;;;;;;4964317;28;20420;-72
2020/12/28 02:58:52;;;;;;;0.40;0.20;;;7.60;99.90;;;;;;4959114;28;20398;-72
2020/12/28 03:01:17;;;;;;;0.70;0.30;;;6.90;99.90;;;;;;4984852;28;20389;-72
2020/12/28 03:03:43;;;;;;;0.40;0.30;;;6.00;99.90;;;;;;4957973;28;20456;-72
2020/12/28 03:06:10;;;;;;;0.70;0.30;;;7.30;99.90;;;;;;4965583;28;21003;-73
2020/12/28 03:08:36;;;;;;;0.40;0.30;;;6.70;99.90;;;;;;4965702;28;20789;-73
2020/12/28 03:11:01;;;;;;;0.40;0.20;;;6.50;99.90;;;;;;4957372;28;20397;-73
2020/12/28 03:13:27;;;;;;;0.40;0.20;;;5.20;99.90;;;;;;4969891;28;20388;-73
2020/12/28 03:15:52;;;;;;;0.40;0.30;;;5.10;99.90;;;;;;4958819;28;20469;-73
2020/12/28 03:18:18;;;;;;;0.40;0.20;;;5.30;99.90;;;;;;4963576;28;20409;-72
2020/12/28 03:20:43;;;;;;;0.40;0.30;;;5.20;99.90;;;;;;4965899;28;20495;-78
2020/12/28 03:23:09;;;;;;;0.60;0.30;;;6.70;99.90;;;;;;4956419;28;20398;-73
2020/12/28 03:25:35;;;;;;;0.50;0.20;;;6.00;99.90;;;;;;4969148;28;20409;-72
2020/12/28 03:28:00;;;;;;;0.40;0.20;;;6.70;99.90;;;;;;4959264;28;20455;-73
2020/12/28 03:30:26;;;;;;;0.40;0.30;;;6.60;99.90;;;;;;4961983;28;20485;-72
2020/12/28 03:32:51;;;;;;;0.40;0.25;;;6.20;99.90;;;;;;4968470;28;20392;-72
2020/12/28 03:35:17;;;;;;;0.40;0.30;;;6.30;99.90;;;;;;4955717;28;20406;-73
2020/12/28 03:37:43;;;;;;;0.60;0.40;;;5.40;99.90;;;;;;4967200;28;20414;-72
2020/12/28 03:40:08;;;;;;;0.60;0.30;;;6.10;99.90;;;;;;4960322;28;20392;-72
2020/12/28 03:42:34;;;;;;;0.40;0.20;;;5.20;99.90;;;;;;4960339;28;20389;-72
2020/12/28 03:44:59;;;;;;;0.40;0.30;;;5.10;99.90;;;;;;4963217;28;20394;-72
2020/12/28 03:47:25;;;;;;;0.88;0.40;;;5.50;99.90;;;;;;4968940;28;20497;-72
2020/12/28 03:49:51;;;;;;;0.40;0.30;;;4.70;99.90;;;;;;4957943;28;20388;-73
2020/12/28 03:52:16;;;;;;;0.40;0.30;;;5.00;99.90;;;;;;4961341;28;20421;-73
2020/12/28 03:54:46;;;;;;;0.40;0.30;;;4.90;99.90;;;;;;4965161;28;20432;-72
2020/12/28 03:57:11;;;;;;;0.90;0.30;;;5.10;99.90;;;;;;4955614;28;20433;-72
2020/12/28 03:59:37;;;;;;;0.40;0.30;;;4.80;99.90;;;;;;4968700;28;20394;-72
2020/12/28 04:02:02;;;;;;;0.73;0.40;;;5.20;99.90;;;;;;4959516;28;20729;-72
2020/12/28 04:04:28;;;;;;;0.40;0.30;;;5.40;99.90;;;;;;4961297;28;20398;-71
2020/12/28 04:06:54;;;;;;;1.00;0.30;;;6.00;99.90;;;;;;4965777;28;20400;-72
2020/12/28 04:09:19;;;;;;;0.40;0.20;;;4.80;99.90;;;;;;4955695;28;20739;-72
2020/12/28 04:11:45;;;;;;;0.40;0.30;;;5.10;99.90;;;;;;4967287;28;20381;-71
2020/12/28 04:14:10;;;;;;;0.40;0.30;;;5.00;99.90;;;;;;4960096;28;20392;-72
2020/12/28 04:16:36;;;;;;;0.50;0.30;;;5.10;99.90;;;;;;4959892;28;20941;-72
2020/12/28 04:19:02;;;;;;;0.40;0.30;;;6.10;99.90;;;;;;4966917;28;20471;-72
2020/12/28 04:21:27;;;;;;;0.87;0.30;;;5.00;99.90;;;;;;4955494;28;20420;-71
2020/12/28 04:23:53;;;;;;;1.00;0.30;;;5.90;99.90;;;;;;4964797;28;20406;-70
2020/12/28 04:26:18;;;;;;;2.50;0.30;;;4.70;99.90;;;;;;4960536;28;20885;-70
2020/12/28 04:28:44;;;;;;;0.40;0.40;;;6.90;99.90;;;;;;4958763;28;20394;-70
2020/12/28 04:31:10;;;;;;;0.50;0.40;;;6.80;99.90;;;;;;4966978;28;20573;-71
2020/12/28 04:33:37;;;;;;;2.80;0.50;;;6.30;99.90;;;;;;4954799;28;20475;-71
2020/12/28 04:36:03;;;;;;;0.60;0.40;;;4.90;99.90;;;;;;4963226;28;20746;-71
2020/12/28 04:38:28;;;;;;;0.68;0.57;;;5.30;99.90;;;;;;4977886;28;20399;-71
2020/12/28 04:40:54;;;;;;;0.50;0.40;;;4.90;99.90;;;;;;4956475;28;20402;-71
2020/12/28 04:43:19;;;;;;;0.40;0.30;;;5.20;99.90;;;;;;4967784;28;20470;-71
2020/12/28 04:45:45;;;;;;;1.80;0.50;;;5.40;99.90;;;;;;4957114;28;20398;-71
2020/12/28 04:48:11;;;;;;;0.40;0.30;;;5.60;99.90;;;;;;4962300;28;20510;-72
2020/12/28 04:50:39;;;;;;;0.40;0.30;;;5.60;99.90;;;;;;4963456;28;20937;-72
2020/12/28 04:53:05;;;;;;;0.40;0.30;;;4.90;99.90;;;;;;4970671;28;20749;-71
2020/12/28 04:55:31;;;;;;;0.70;0.43;;;5.20;99.90;;;;;;4959132;28;20400;-73
2020/12/28 04:57:58;;;;;;;1.00;0.40;;;6.20;99.90;;;;;;4967984;28;20421;-72
2020/12/28 05:00:24;;;;;;;0.75;0.47;;;5.50;99.90;;;;;;4966134;28;20394;-72
2020/12/28 05:02:50;;;;;;;1.40;0.40;;;6.50;99.90;;;;;;4961244;28;20883;-76
2020/12/28 05:05:15;;;;;;;0.60;0.40;;;4.60;99.90;;;;;;4971457;28;20412;-72
2020/12/28 05:07:48;;;;;;;0.43;0.30;;;4.50;99.90;;;;;;4959969;28;20398;-71
2020/12/28 05:10:21;;;;;;;0.40;0.30;;;4.60;99.90;;;;;;4966113;28;20461;-71
2020/12/28 05:12:47;;;;;;;0.50;0.40;;;6.10;99.90;;;;;;4969101;28;20709;-71
2020/12/28 05:15:13;;;;;;;1.00;0.40;;;5.00;99.90;;;;;;4958124;28;20390;-71
2020/12/28 05:17:39;;;;;;;2.20;0.30;;;6.80;99.90;;;;;;4959657;28;20416;-71
2020/12/28 05:20:05;;;;;;;0.63;0.50;;;5.70;99.90;;;;;;4966565;28;20729;-71
2020/12/28 05:22:32;;;;;;;0.43;0.38;;;5.30;99.90;;;;;;4966381;28;20395;-71
2020/12/28 05:24:58;;;;;;;0.45;0.45;;;5.10;99.90;;;;;;4959714;28;20478;-72
2020/12/28 05:27:24;;;;;;;0.50;0.40;;;6.00;99.90;;;;;;4971196;28;20478;-72
2020/12/28 05:29:50;;;;;;;0.60;0.40;;;5.20;99.90;;;;;;4961033;28;20806;-78
2020/12/28 05:32:17;;;;;;;0.40;0.30;;;4.90;99.90;;;;;;4965441;28;20394;-72
2020/12/28 05:34:45;;;;;;;0.70;0.30;;;4.30;99.90;;;;;;4967916;28;20391;-71
2020/12/28 05:37:13;;;;;;;0.60;0.40;;;4.80;99.90;;;;;;4957853;28;20604;-73
2020/12/28 05:39:40;;;;;;;0.60;0.40;;;5.60;99.90;;;;;;4970738;28;20389;-72
2020/12/28 05:42:14;;;;;;;0.70;0.40;;;4.60;99.90;;;;;;4962516;28;20388;-73
2020/12/28 05:44:41;;;;;;;0.60;0.40;;;4.50;99.90;;;;;;4963577;28;20474;-73
2020/12/28 05:47:17;;;;;;;0.85;0.60;;;4.00;99.90;;;;;;4957997;28;20715;-72
2020/12/28 05:49:48;;;;;;;1.00;0.60;;;4.60;99.90;;;;;;4959846;28;20450;-72
2020/12/28 05:52:15;;;;;;;0.60;0.40;;;3.80;99.90;;;;;;4964916;28;20433;-72
2020/12/28 05:54:41;;;;;;;0.60;0.50;;;5.70;99.90;;;;;;4967513;28;20415;-72
2020/12/28 05:57:08;;;;;;;0.60;0.50;;;5.40;99.90;;;;;;4957743;28;20432;-72
2020/12/28 05:59:35;;;;;;;0.65;0.50;;;5.20;99.90;;;;;;4953929;28;20408;-73
2020/12/28 06:02:02;;;;;;;0.50;0.50;;;4.80;99.90;;;;;;4961149;28;20384;-72
2020/12/28 06:04:28;;;;;;;0.80;0.45;;;4.10;99.90;;;;;;4963464;28;20394;-72
2020/12/28 06:06:59;;;;;;;0.70;0.40;;;5.70;99.90;;;;;;4968472;28;20479;-77
2020/12/28 06:09:25;;;;;;;0.80;0.70;;;4.20;99.90;;;;;;4958137;28;20842;-73
2020/12/28 06:12:05;;;;;;;0.70;0.60;;;3.90;99.90;;;;;;4968753;28;20390;-73
2020/12/28 06:14:35;;;;;;;0.70;0.40;;;4.00;99.90;;;;;;4973897;28;20457;-72
2020/12/28 06:17:09;;;;;;;0.80;0.50;;;5.30;99.90;;;;;;4958125;28;20459;-73
2020/12/28 06:19:36;;;;;;;2.42;0.60;;;4.10;99.90;;;;;;4958123;28;20383;-72
2020/12/28 06:22:02;;;;;;;0.70;0.40;;;4.00;99.90;;;;;;4966061;28;20409;-72
2020/12/28 06:24:33;;;;;;;0.80;0.70;;;3.80;99.90;;;;;;4954511;28;20898;-73
2020/12/28 06:27:00;;;;;;;0.60;0.60;;;3.90;99.90;;;;;;4968366;28;20479;-72
2020/12/28 06:29:26;;;;;;;1.35;0.80;;;5.30;99.90;;;;;;4957800;28;20390;-72
2020/12/28 06:31:51;;;;;;;1.60;0.80;;;5.70;99.90;;;;;;4972532;28;20741;-77
2020/12/28 06:34:18;;;;;;;0.87;0.50;;;4.50;99.90;;;;;;4988197;28;20396;-73
2020/12/28 06:36:44;;;;;;;1.00;0.50;;;3.70;99.90;;;;;;4973559;28;20416;-72
2020/12/28 06:39:11;;;;;;;0.70;0.70;;;4.00;99.90;;;;;;4972400;28;20391;-73
2020/12/28 06:41:37;;;;;;;1.30;0.70;;;5.00;99.90;;;;;;4963525;28;20407;-73
2020/12/28 06:44:03;;;;;;;0.70;0.60;;;3.80;99.90;;;;;;4969151;28;20873;-72
2020/12/28 06:46:30;;;;;;;0.60;0.60;;;4.70;99.90;;;;;;4968946;28;20467;-72
2020/12/28 06:48:56;;;;;;;1.70;0.60;;;6.00;99.90;;;;;;4958593;28;20398;-77
2020/12/28 06:51:23;;;;;;;0.80;0.60;;;4.40;99.90;;;;;;4969944;28;20395;-72
2020/12/28 06:53:56;;;;;;;0.52;0.50;;;4.20;99.90;;;;;;4959752;28;20487;-73
2020/12/28 06:56:25;;;;;;;0.60;0.40;;;4.10;99.90;;;;;;4963443;28;20466;-73
2020/12/28 06:59:01;;;;;;;0.57;0.43;;;4.10;99.90;;;;;;4967555;28;20461;-73
2020/12/28 07:01:28;;;;;;;0.68;0.40;;;4.30;99.90;;;;;;4957234;28;20436;-73
2020/12/28 07:03:54;;;;;;;0.68;0.68;;;4.00;99.90;;;;;;4967183;28;20445;-73
2020/12/28 07:06:20;;;;;;;1.70;0.50;;;4.30;99.90;;;;;;4953899;28;20377;-73
2020/12/28 07:08:46;;;;;;;0.50;0.40;;;6.60;99.90;;;;;;4967184;28;20777;-75
2020/12/28 07:11:20;;;;;;;0.80;0.50;;;5.30;99.90;;;;;;4969950;28;20773;-74
2020/12/28 07:13:46;;;;;;;0.50;0.43;;;4.60;99.90;;;;;;4968214;28;20485;-75
2020/12/28 07:16:13;;;;;;;1.00;0.60;;;5.90;99.90;;;;;;4961182;28;20991;-74
2020/12/28 07:18:38;;;;;;;0.57;0.57;;;4.30;99.90;;;;;;4960954;28;20396;-75
2020/12/28 07:21:05;;;;;;;0.60;0.50;;;4.90;99.90;;;;;;4968230;28;20467;-74
2020/12/28 07:23:32;;;;;;;0.70;0.40;;;7.20;99.90;;;;;;4969943;28;20409;-74
2020/12/28 07:26:18;;;;;;;0.40;0.30;;;6.80;99.90;;;;;;4959727;28;20388;-77
2020/12/28 07:28:46;;;;;;;0.50;0.30;;;5.50;99.90;;;;;;4960123;28;20468;-74
2020/12/28 07:31:12;;;;;;;0.40;0.40;;;4.60;99.90;;;;;;4969013;28;20400;-73
2020/12/28 07:33:47;;;;;;;1.30;0.70;;;4.40;99.90;;;;;;5108525;27;20369;-73
2020/12/28 07:36:15;;;;;;;1.00;0.55;;;4.60;99.90;;;;;;5107326;28;20389;-73
2020/12/28 07:38:43;;;;;;;0.55;0.40;;;6.10;99.90;;;;;;5121515;28;20375;-73
2020/12/28 07:41:15;;;;;;;1.30;0.60;;;4.90;99.90;;;;;;5111373;28;20380;-73
2020/12/28 07:43:49;;;;;;;0.90;0.75;;;6.60;99.90;;;;;;5097290;28;20450;-75
2020/12/28 07:46:29;;;;;;;0.60;0.60;;;4.60;99.90;;;;;;5122994;28;20391;-73
2020/12/28 07:49:00;;;;;;;0.60;0.50;;;4.30;99.90;;;;;;5112334;28;20381;-74
2020/12/28 07:51:27;;;;;;;0.70;0.50;;;5.40;99.90;;;;;;5125118;28;20454;-73
2020/12/28 07:54:01;;;;;;;0.80;0.60;;;4.20;99.90;;;;;;5113798;28;20867;-74
2020/12/28 07:56:38;;;;;;;2.00;0.80;;;5.80;99.90;;;;;;5117561;28;20771;-74
2020/12/28 07:59:28;;;;;;;0.80;0.70;;;5.40;99.90;;;;;;5122198;28;20911;-74
2020/12/28 08:01:58;;;;;;;0.80;0.60;;;4.20;99.90;;;;;;5086448;28;20504;-74
2020/12/28 08:04:25;;;;;;;0.77;0.70;;;4.50;99.90;;;;;;5107511;28;20419;-74
2020/12/28 08:06:50;;;;;;;1.63;0.80;;;6.60;99.90;;;;;;5114050;28;20373;-74
2020/12/28 08:09:22;;;;;;;0.70;0.60;;;5.70;99.90;;;;;;5123917;28;20496;-74
2020/12/28 08:11:59;;;;;;;0.80;0.70;;;5.30;99.90;;;;;;5113397;28;20442;-73
2020/12/28 08:14:25;;;;;;;1.13;0.70;;;4.90;99.90;;;;;;5116917;28;20373;-74
2020/12/28 08:16:51;;;;;;;0.90;0.60;;;4.80;99.90;;;;;;5122183;28;20437;-74
2020/12/28 08:19:27;;;;;;;1.70;0.70;;;5.00;99.90;;;;;;5110185;28;20382;-74
2020/12/28 08:21:53;;;;;;;0.70;0.70;;;6.10;99.90;;;;;;5120570;28;20472;-74
2020/12/28 08:24:20;;;;;;;0.80;0.50;;;5.70;99.90;;;;;;5116430;28;20908;-74
2020/12/28 08:26:47;;;;;;;0.80;0.70;;;4.70;99.90;;;;;;5114305;28;20373;-73
2020/12/28 08:29:13;;;;;;;1.25;0.80;;;5.70;99.90;;;;;;5124474;28;20375;-73
2020/12/28 08:31:39;;;;;;;0.82;0.73;;;4.90;99.90;;;;;;5127917;28;20492;-73
2020/12/28 08:34:13;;;;;;;1.05;0.82;;;4.50;99.90;;;;;;5119147;28;20370;-73
2020/12/28 08:36:41;;;;;;;1.48;0.88;;;4.60;99.90;;;;;;5107187;28;20824;-72
2020/12/28 08:39:18;;;;;;;1.10;0.80;;;5.60;99.90;;;;;;5123078;28;20383;-72
2020/12/28 08:41:53;;;;;;;0.80;0.70;;;5.80;99.90;;;;;;5096927;28;20516;-72
2020/12/28 08:44:34;;;;;;;0.80;0.80;;;4.50;99.90;;;;;;5107344;28;20422;-72
2020/12/28 08:47:05;;;;;;;1.00;0.60;;;4.60;99.90;;;;;;5087111;28;20425;-77
2020/12/28 08:49:32;;;;;;;1.60;0.93;;;4.50;99.90;;;;;;5113982;28;20380;-72
2020/12/28 08:52:08;;;;;;;2.30;1.10;;;4.50;99.90;;;;;;5106918;28;20429;-74
2020/12/28 08:54:34;;;;;;;2.20;0.80;;;4.80;99.90;;;;;;5105108;28;20947;-74
2020/12/28 08:56:59;;;;;;;1.67;1.10;;;5.50;99.90;;;;;;5098240;28;20370;-73
2020/12/28 08:59:25;;;;;;;1.42;0.75;;;4.80;99.90;;;;;;5108211;28;20824;-74
2020/12/28 09:01:52;;;;;;;0.90;0.60;;;5.30;99.90;;;;;;5099275;28;20424;-73
2020/12/28 09:04:18;;;;;;;1.23;0.70;;;4.90;99.90;;;;;;5107585;28;20380;-73
2020/12/28 09:06:44;;;;;;;1.20;0.90;;;5.60;99.90;;;;;;5100209;28;20382;-73
2020/12/28 09:09:10;;;;;;;1.33;0.90;;;6.20;99.90;;;;;;5108735;28;20769;-73
2020/12/28 09:11:36;;;;;;;1.40;1.10;;;5.80;99.90;;;;;;5096632;28;20471;-73
2020/12/28 09:14:01;;;;;;;1.20;0.80;;;4.90;99.90;;;;;;5105591;28;20922;-77
2020/12/28 09:16:27;;;;;;;1.38;0.98;;;5.30;99.90;;;;;;5103535;28;20721;-73
2020/12/28 09:18:53;;;;;;;0.80;0.73;;;5.20;99.90;;;;;;5098627;28;20378;-74
2020/12/28 09:21:18;;;;;;;0.60;0.40;;;5.20;99.90;;;;;;5092212;28;20428;-75
2020/12/28 09:23:44;;;;;;;0.63;0.47;;;5.70;99.90;;;;;;5112700;28;20418;-73
2020/12/28 09:26:09;;;;;;;1.07;0.87;;;6.30;99.90;;;;;;5103464;28;20690;-73
2020/12/28 09:28:35;;;;;;;1.63;0.80;;;5.30;99.90;;;;;;5105001;28;20390;-73
2020/12/28 09:31:01;;;;;;;1.30;0.80;;;5.80;99.90;;;;;;5095338;28;20766;-74
2020/12/28 09:33:26;;;;;;;1.20;1.10;;;5.50;99.90;;;;;;5094144;28;20871;-73
2020/12/28 09:35:52;;;;;;;1.20;1.10;;;5.60;99.90;;;;;;5104163;28;20471;-74
2020/12/28 09:38:17;;;;;;;1.53;1.00;;;6.10;99.90;;;;;;5112331;28;20368;-74
2020/12/28 09:40:43;;;;;;;1.53;1.33;;;5.80;99.90;;;;;;5099664;28;20370;-74
2020/12/28 09:43:09;;;;;;;1.10;0.87;;;5.70;99.90;;;;;;5107669;28;20430;-74
2020/12/28 09:45:37;;;;;;;1.30;1.10;;;5.60;99.90;;;;;;5095954;28;20399;-72
2020/12/28 09:48:07;;;;;;;1.40;1.30;;;6.20;99.90;;;;;;5105116;28;20390;-74
2020/12/28 09:50:33;;;;;;;1.70;1.00;;;6.00;99.90;;;;;;5097704;28;20990;-74
2020/12/28 09:52:58;;;;;;;2.10;1.50;;;5.50;99.90;;;;;;5092267;28;20874;-74
2020/12/28 09:55:24;;;;;;;2.20;1.20;;;5.90;99.90;;;;;;5090711;28;20390;-75
2020/12/28 09:57:50;;;;;;;0.90;0.80;;;5.60;99.90;;;;;;5092222;28;20459;-74
2020/12/28 10:00:17;;;;;;;1.30;1.02;;;5.80;99.90;;;;;;5091203;28;20408;-73
2020/12/28 10:02:43;;;;;;;1.10;1.00;;;5.80;99.90;;;;;;5092316;28;20394;-73
2020/12/28 10:05:09;;;;;;;1.10;0.50;;;6.10;99.90;;;;;;5091168;28;20498;-76
2020/12/28 10:07:37;;;;;;;1.00;0.93;;;5.90;99.90;;;;;;5092189;28;20375;-72
2020/12/28 10:10:07;;;;;;;0.80;0.50;;;6.00;99.90;;;;;;5091863;28;20382;-71
2020/12/28 10:12:33;;;;;;;0.60;0.40;;;6.60;99.90;;;;;;5091288;28;20414;-72
2020/12/28 10:14:59;;;;;;;0.40;0.30;;;6.10;99.90;;;;;;5091898;28;20370;-72
2020/12/28 10:17:24;;;;;;;0.80;0.40;;;7.30;99.90;;;;;;5092594;28;20483;-82
2020/12/28 10:19:50;;;;;;;1.73;0.60;;;6.70;99.90;;;;;;5092669;28;20423;-80
2020/12/28 10:22:16;;;;;;;0.40;0.20;;;6.50;99.90;;;;;;5092364;28;20766;-81
2020/12/28 10:24:42;;;;;;;0.50;0.30;;;8.20;99.90;;;;;;5093322;28;20401;-79
2020/12/28 10:27:07;;;;;;;0.50;0.40;;;7.00;99.90;;;;;;5092646;28;20789;-81
2020/12/28 10:29:33;;;;;;;0.40;0.30;;;5.70;99.90;;;;;;5093864;28;20469;-82
2020/12/28 10:31:59;;;;;;;0.40;0.30;;;6.80;99.90;;;;;;5097859;28;20452;-79
2020/12/28 10:34:25;;;;;;;0.65;0.30;;;6.40;99.90;;;;;;5092696;28;20370;-79
2020/12/28 10:36:52;;;;;;;0.70;0.50;;;7.50;99.90;;;;;;5091781;28;20397;-80
2020/12/28 10:39:17;;;;;;;0.60;0.45;;;5.80;99.90;;;;;;5091257;28;20477;-78
2020/12/28 10:41:43;;;;;;;0.80;0.57;;;5.40;99.90;;;;;;5091404;28;20922;-73
2020/12/28 10:44:09;;;;;;;0.40;0.38;;;5.10;99.90;;;;;;5088509;28;20386;-73
2020/12/28 10:46:38;;;;;;;0.77;0.50;;;5.20;99.90;;;;;;5091694;28;20773;-72
2020/12/28 10:49:04;;;;;;;0.70;0.40;;;4.40;99.90;;;;;;5093508;28;20463;-73
2020/12/28 10:51:30;;;;;;;0.73;0.50;;;4.10;99.90;;;;;;5088232;28;20447;-73
2020/12/28 10:53:56;;;;;;;0.80;0.50;;;5.60;99.90;;;;;;5091804;28;20378;-73
2020/12/28 10:56:23;;;;;;;0.60;0.30;;;3.20;99.90;;;;;;5089940;28;20860;-72
2020/12/28 10:58:49;;;;;;;0.50;0.40;;;4.70;99.90;;;;;;5092931;28;20378;-73
2020/12/28 11:01:15;;;;;;;1.40;0.45;;;4.10;99.90;;;;;;5091124;28;20374;-74
2020/12/28 11:03:41;;;;;;;0.40;0.40;;;3.60;99.90;;;;;;5091962;28;20761;-73
2020/12/28 11:06:06;;;;;;;0.40;0.30;;;4.00;99.90;;;;;;5091450;28;20427;-73
2020/12/28 11:08:32;;;;;;;0.40;0.30;;;3.70;99.90;;;;;;5091362;28;20473;-74
2020/12/28 11:10:58;;;;;;;0.40;0.40;;;4.40;99.90;;;;;;5092215;28;20378;-73
2020/12/28 11:13:24;;;;;;;0.60;0.30;;;5.00;99.90;;;;;;5096665;28;20507;-75
2020/12/28 11:15:49;;;;;;;0.43;0.30;;;5.10;99.90;;;;;;5101419;28;20381;-75
2020/12/28 11:18:15;;;;;;;1.70;1.20;;;4.60;99.90;;;;;;5103955;28;20380;-76
2020/12/28 11:20:41;;;;;;;0.60;0.40;;;4.30;99.90;;;;;;5110175;28;20501;-74
2020/12/28 11:23:06;;;;;;;0.40;0.30;;;4.00;99.90;;;;;;5104211;28;20393;-73
2020/12/28 11:25:33;;;;;;;0.57;0.30;;;4.20;99.90;;;;;;5096420;28;20420;-73
2020/12/28 11:27:58;;;;;;;1.10;0.30;;;4.20;99.90;;;;;;5096912;28;20428;-73
2020/12/28 11:30:24;;;;;;;0.50;0.37;;;4.80;99.90;;;;;;5100199;28;20465;-72
2020/12/28 11:32:49;;;;;;;1.00;0.40;;;4.20;99.90;;;;;;5103947;28;20923;-73
2020/12/28 11:35:15;;;;;;;0.60;0.30;;;6.10;99.90;;;;;;5093606;28;20386;-74
2020/12/28 11:37:41;;;;;;;0.57;0.40;;;4.60;99.90;;;;;;5110807;28;20744;-73
2020/12/28 11:40:06;;;;;;;0.70;0.50;;;4.50;99.90;;;;;;5111164;28;20378;-73
2020/12/28 11:42:33;;;;;;;0.80;0.50;;;4.80;99.90;;;;;;5110152;28;20488;-72
2020/12/28 11:44:58;;;;;;;0.50;0.40;;;5.00;99.90;;;;;;5107255;28;20810;-72
2020/12/28 11:47:24;;;;;;;0.40;0.30;;;5.60;99.90;;;;;;5106448;28;20457;-72
2020/12/28 11:49:50;;;;;;;0.60;0.60;;;5.60;99.90;;;;;;5091230;28;20471;-73
2020/12/28 11:52:17;;;;;;;2.63;0.50;;;4.90;99.90;;;;;;5090613;28;20408;-73
2020/12/28 11:54:43;;;;;;;0.70;0.30;;;5.30;99.90;;;;;;5090702;28;20387;-76
2020/12/28 11:57:09;;;;;;;0.40;0.30;;;4.80;99.90;;;;;;5089548;28;20389;-76
2020/12/28 11:59:35;;;;;;;0.70;0.40;;;5.20;99.90;;;;;;5084510;28;20382;-75
2020/12/28 12:02:00;;;;;;;1.10;0.50;;;5.30;99.90;;;;;;5084196;28;20398;-74
2020/12/28 12:07:11;;;;;;;0.50;0.50;;;4.90;99.90;;;;;;5079622;28;20516;-77
2020/12/28 12:09:36;;;;;;;0.50;0.40;;;5.10;99.90;;;;;;5077821;28;20902;-77
2020/12/28 12:12:02;;;;;;;0.40;0.40;;;6.30;99.90;;;;;;5079531;28;20501;-76
2020/12/28 12:14:27;;;;;;;2.30;1.83;;;5.10;99.90;;;;;;5078895;28;20894;-76
2020/12/28 12:16:53;;;;;;;2.60;1.80;;;6.70;99.90;;;;;;5081329;28;20374;-76
2020/12/28 12:19:19;;;;;;;1.80;1.50;;;7.20;99.90;;;;;;5080049;28;21043;-78
2020/12/28 12:21:45;;;;;;;1.30;1.10;;;6.00;99.90;;;;;;5083586;28;20414;-76
2020/12/28 12:24:10;;;;;;;0.40;0.30;;;5.60;99.90;;;;;;5085163;28;20411;-79
2020/12/28 12:26:36;;;;;;;0.60;0.40;;;5.60;99.90;;;;;;5081471;28;20488;-78
2020/12/28 12:29:03;;;;;;;0.40;0.30;;;7.10;99.90;;;;;;5082628;28;20377;-77
2020/12/28 12:31:29;;;;;;;0.40;0.30;;;5.90;99.90;;;;;;5081557;28;20847;-77
2020/12/28 12:33:55;;;;;;;0.60;0.40;;;5.40;99.90;;;;;;5083174;28;20420;-75
2020/12/28 12:36:20;;;;;;;0.70;0.40;;;5.70;99.90;;;;;;5078746;28;20410;-76
2020/12/28 12:38:46;;;;;;;0.50;0.50;;;5.60;99.90;;;;;;5084218;28;20390;-76
2020/12/28 12:41:17;;;;;;;0.40;0.40;;;7.00;99.90;;;;;;5081716;28;20393;-74
2020/12/28 12:43:43;;;;;;;0.40;0.40;;;5.60;99.90;;;;;;5083744;28;20985;-75
2020/12/28 12:46:10;;;;;;;0.50;0.40;;;6.20;99.90;;;;;;5083884;28;20481;-74
2020/12/28 12:48:39;;;;;;;0.50;0.30;;;8.30;99.90;;;;;;5082382;28;21009;-73
2020/12/28 12:51:04;;;;;;;1.50;0.40;;;5.70;99.90;;;;;;5080069;28;20410;-72
2020/12/28 12:53:30;;;;;;;0.60;0.40;;;5.60;99.90;;;;;;5083407;28;20516;-72
2020/12/28 12:55:56;;;;;;;0.40;0.30;;;6.00;99.90;;;;;;5083734;28;20386;-74
2020/12/28 12:58:21;;;;;;;0.50;0.30;;;5.40;99.90;;;;;;5081499;28;20418;-74